x

Smith Island, Wa (sisw1) Weather Station

9:00pm - Mon 2nd May 2016 All times are PDT. -7 hours from GMT.

  • Wind
    7mph, 8mph gusts
  • 空気 Temp 60°f
  • Sea Pressure 1013.2mb
  • Smith Island, Wa
  • Smith Island, Wa

More Historic Weather Station data

Upgrade to MSW Pro to gain access to the past 30 days of data for over 8000 Wavebouys and Weather Stations around the globe.

Join Pro

Comparision Forecast

View Surf forecast
   
Mon 05/02 9:00pm 7 8 mph 1013.2mb 60f
8:00pm 9 10 mph 1012.5mb 57f
7:00pm 2 3 mph 1012.1mb 64f
6:00pm 14 16 mph 1011.9mb 61f
5:00pm 11
mph
1011.9mb 60f
4:00pm 8 9 mph 1012mb 71f
3:00pm 14 15 mph 1012.7mb 68f
2:00pm 15 17 mph 1013.3mb 64f
1:00pm 11 14 mph 1014mb 64f
12:00pm 14 15 mph 1014.5mb 64f
11:00am 8 9 mph 1014.6mb 61f
10:00am 5 6 mph 1014.9mb 59f
9:00am 3 5 mph 1015.1mb 56f
8:00am 5
mph
1014.9mb 55f
7:00am 2 3 mph 1014.6mb 54f
6:00am 3 6 mph 1014.3mb 54f
5:00am 21
mph
1013.8mb 55f
4:00am 13
mph
1014.3mb 53f
3:00am 6 7 mph 1014.3mb 53f
2:00am 7 8 mph 1014mb 56f
1:00am 7 8 mph 1014mb 53f
12:00am 6
mph
1014.1mb 55f
Sun 05/01 11:00pm 3
mph
1014.4mb 59f
10:00pm 7 10 mph 1014.2mb 59f
9:00pm 8
mph
1013.9mb 57f
8:00pm  -  2 mph 1014mb 59f
7:00pm 3 5 mph 1014.3mb 61f
6:00pm 2
mph
1015.2mb 60f
5:00pm 1 2 mph 1016.1mb 62f
4:00pm 3 5 mph 1017.2mb 60f
3:00pm 5
mph
1018mb 58f
2:00pm 3 5 mph 1019mb 56f
1:00pm 2
mph
1020mb 57f
12:00pm 3 5 mph 1021.1mb 57f
11:00am 2
mph
1021.7mb 53f
10:00am  -  1 mph 1022.6mb 54f
9:00am 2 3 mph 1023.4mb 52f
8:00am 1 2 mph 1023.6mb 51f
7:00am 2 3 mph 1023.8mb 50f
6:00am 6
mph
1023.9mb 49f
5:00am 6
mph
1024.3mb 48f
4:00am  -  mph 1024.6mb 50f
3:00am 5 6 mph 1025mb 51f
2:00am 9 11 mph 1025.3mb 51f
1:00am 8 9 mph 1025.9mb 51f
12:00am 11 13 mph 1025.9mb 51f
Sat 04/30 11:00pm 14 15 mph 1026.3mb 51f
10:00pm 11 16 mph 1026.5mb 52f
9:00pm 14 17 mph 1026.3mb 52f
8:00pm 10 11 mph 1026.3mb 53f
7:00pm 3
mph
1026.5mb 55f
6:00pm 7 8 mph 1026.8mb 56f
5:00pm 13
mph
1027mb 55f
4:00pm 11 13 mph 1027.2mb 55f
3:00pm 6 7 mph 1027.8mb 57f
2:00pm 7 9 mph 1028.1mb 56f
1:00pm 6 8 mph 1028.5mb 54f
12:00pm 3 7 mph 1028.6mb 54f
11:00am 2 5 mph 1028.7mb 54f
10:00am 8 9 mph 1028.6mb 52f
9:00am 7 10 mph 1028.6mb 51f
8:00am 6 9 mph 1028.2mb 51f
7:00am 7 8 mph 1027.5mb 50f
6:00am 11 14 mph 1026.8mb 49f
5:00am 7 9 mph 1026.5mb 49f
4:00am 5 6 mph 1026mb 49f
3:00am 6 9 mph 1025.4mb 50f
2:00am 16 18 mph 1024.6mb 50f
1:00am 20 24 mph 1024.1mb 51f
12:00am 16 24 mph 1023.7mb 51f
Fri 04/29 11:00pm 17 24 mph 1023.3mb 51f
10:00pm 26 30 mph 1022.4mb 51f
9:00pm 22 28 mph 1021.7mb 52f
8:00pm 18 25 mph 1021mb 53f
7:00pm 26 32 mph 1020.5mb 54f
6:00pm 15
mph
1020.9mb 54f
5:00pm 13 14 mph 1020.5mb 54f
4:00pm 11 13 mph 1020.4mb 54f
3:00pm 9 10 mph 1020.5mb 56f
2:00pm 10 11 mph 1020mb 54f
1:00pm 16 17 mph 1019.8mb 53f
12:00pm 16 20 mph 1019.7mb 52f
11:00am 17 22 mph 1019.6mb 51f
10:00am 17 24 mph 1019.3mb 50f
9:00am 25 28 mph 1018.8mb 50f
8:00am 21 28 mph 1018.4mb 50f
7:00am 24 26 mph 1018.1mb 49f
6:00am 20 28 mph 1017.9mb 49f